createdAt,value
2023-01-12T00:00:50.985Z,21.2
2023-01-12T00:01:55.324Z,21.21
2023-01-12T00:02:59.697Z,21.22
2023-01-12T00:04:04.010Z,21.21
2023-01-12T00:05:08.449Z,21.19
2023-01-12T00:06:12.707Z,21.2
2023-01-12T00:07:19.441Z,21.2
2023-01-12T00:08:23.957Z,21.2
2023-01-12T00:09:28.215Z,21.18
2023-01-12T00:10:32.510Z,21.2
2023-01-12T00:11:36.764Z,21.18
2023-01-12T00:12:41.028Z,21.2
2023-01-12T00:13:45.298Z,21.19
2023-01-12T00:14:49.571Z,21.19
2023-01-12T00:15:54.159Z,21.15
2023-01-12T00:16:58.717Z,21.16
2023-01-12T00:18:02.975Z,21.18
2023-01-12T00:19:07.238Z,21.19
2023-01-12T00:20:11.476Z,21.19
2023-01-12T00:21:15.747Z,21.19
2023-01-12T00:22:20.032Z,21.2
2023-01-12T00:23:24.294Z,21.19
2023-01-12T00:24:28.562Z,21.19
2023-01-12T00:25:32.822Z,21.16
2023-01-12T00:26:37.098Z,21.17
2023-01-12T00:27:41.398Z,21.19
2023-01-12T00:28:45.646Z,21.2
2023-01-12T00:29:49.976Z,21.18
2023-01-12T00:30:54.301Z,21.19
2023-01-12T00:31:58.644Z,21.19
2023-01-12T00:33:02.955Z,21.18
2023-01-12T00:34:07.242Z,21.18
2023-01-12T00:35:11.478Z,21.18
2023-01-12T00:36:15.742Z,21.18
2023-01-12T00:37:20.020Z,21.18
2023-01-12T00:38:24.371Z,21.14
2023-01-12T00:39:28.630Z,21.12
2023-01-12T00:40:32.904Z,21.1
2023-01-12T00:41:37.144Z,21.1
2023-01-12T00:42:41.372Z,21.13
2023-01-12T00:43:45.621Z,21.14
2023-01-12T00:44:49.917Z,21.17
2023-01-12T00:45:54.241Z,21.12
2023-01-12T00:46:58.637Z,21.13
2023-01-12T00:48:02.933Z,21.12
2023-01-12T00:49:07.180Z,21.15
2023-01-12T00:50:11.449Z,21.16
2023-01-12T00:51:15.719Z,21.15
2023-01-12T00:52:35.496Z,21.13
2023-01-12T00:53:39.784Z,21.15
2023-01-12T00:54:44.023Z,21.13
2023-01-12T00:55:48.295Z,21.13
2023-01-12T00:56:52.567Z,21.13
2023-01-12T00:57:56.834Z,21.13
2023-01-12T00:59:01.143Z,21.12
2023-01-12T01:00:05.463Z,21.12
2023-01-12T01:01:09.846Z,21.13
2023-01-12T01:02:14.579Z,21.12
2023-01-12T01:03:19.189Z,21.13
2023-01-12T01:04:23.465Z,21.13
2023-01-12T01:05:27.720Z,21.09
2023-01-12T01:06:33.191Z,21.11
2023-01-12T01:07:37.484Z,21.13
2023-01-12T01:08:44.381Z,21.11
2023-01-12T01:09:48.647Z,21.12
2023-01-12T01:10:52.994Z,21.11
2023-01-12T01:11:57.294Z,21.08
2023-01-12T01:13:01.555Z,21.1
2023-01-12T01:14:05.857Z,21.11
2023-01-12T01:15:10.114Z,21.12
2023-01-12T01:16:14.425Z,21.11
2023-01-12T01:17:18.855Z,21.09
2023-01-12T01:18:23.114Z,21.08
2023-01-12T01:19:27.369Z,21.1
2023-01-12T01:20:31.674Z,21.08
2023-01-12T01:21:35.895Z,21.06
2023-01-12T01:22:40.180Z,21.08
2023-01-12T01:23:44.444Z,21.11
2023-01-12T01:24:48.729Z,21.14
2023-01-12T01:25:52.988Z,21.16
2023-01-12T01:26:57.236Z,21.16
2023-01-12T01:28:01.493Z,21.14
2023-01-12T01:29:05.760Z,21.12
2023-01-12T01:30:10.097Z,21.12
2023-01-12T01:31:14.418Z,21.09
2023-01-12T01:32:18.809Z,21.08
2023-01-12T01:33:23.039Z,21.08
2023-01-12T01:34:27.276Z,21.07
2023-01-12T01:35:31.547Z,21.08
2023-01-12T01:36:35.825Z,21.09
2023-01-12T01:37:40.059Z,21.07
2023-01-12T01:38:44.333Z,21.04
2023-01-12T01:39:48.649Z,21.02
2023-01-12T01:40:52.970Z,20.99
2023-01-12T01:41:57.241Z,20.98
2023-01-12T01:43:01.549Z,20.96
2023-01-12T01:44:05.812Z,20.93
2023-01-12T01:45:10.107Z,20.93
2023-01-12T01:46:14.395Z,20.98
2023-01-12T01:47:18.872Z,21
2023-01-12T01:48:23.131Z,21.01
2023-01-12T01:49:27.409Z,21.01
2023-01-12T01:50:31.646Z,21.02
2023-01-12T01:51:35.935Z,20.99
2023-01-12T01:52:40.197Z,20.99
2023-01-12T01:53:44.457Z,20.96
2023-01-12T01:54:48.760Z,21
2023-01-12T01:55:53.050Z,21.01
2023-01-12T01:56:57.340Z,21.03
2023-01-12T01:58:01.622Z,21.05
2023-01-12T01:59:05.865Z,21.05
2023-01-12T02:00:10.119Z,21.02
2023-01-12T02:01:14.418Z,21.01
2023-01-12T02:02:19.057Z,21.03
2023-01-12T02:03:23.473Z,21.05
2023-01-12T02:04:27.729Z,21.01
2023-01-12T02:05:31.994Z,21.01
2023-01-12T02:06:36.272Z,21.04
2023-01-12T02:07:40.581Z,21.07
2023-01-12T02:08:44.853Z,21.03
2023-01-12T02:09:49.119Z,21.02
2023-01-12T02:10:53.356Z,21.02
2023-01-12T02:11:57.604Z,21.02
2023-01-12T02:13:01.868Z,21
2023-01-12T02:14:06.122Z,20.98
2023-01-12T02:15:10.409Z,20.93
2023-01-12T02:16:14.702Z,20.9
2023-01-12T02:17:19.240Z,20.89
2023-01-12T02:18:23.497Z,20.89
2023-01-12T02:19:27.781Z,20.89
2023-01-12T02:20:32.045Z,20.88
2023-01-12T02:21:36.319Z,20.87
2023-01-12T02:22:40.572Z,20.86
2023-01-12T02:23:44.833Z,20.85
2023-01-12T02:24:49.072Z,20.85
2023-01-12T02:25:53.319Z,20.84
2023-01-12T02:26:57.863Z,20.85
2023-01-12T02:28:02.111Z,20.87
2023-01-12T02:29:06.421Z,20.89
2023-01-12T02:30:10.672Z,20.91
2023-01-12T02:31:14.991Z,20.95
2023-01-12T02:32:19.405Z,20.94
2023-01-12T02:33:23.661Z,20.95
2023-01-12T02:34:27.898Z,20.97
2023-01-12T02:35:32.248Z,20.96
2023-01-12T02:36:36.516Z,20.95
2023-01-12T02:37:40.786Z,20.94
2023-01-12T02:38:45.042Z,20.98
2023-01-12T02:39:49.300Z,20.93
2023-01-12T02:40:53.565Z,20.91
2023-01-12T02:41:57.816Z,20.91
2023-01-12T02:43:02.108Z,20.9
2023-01-12T02:44:06.391Z,20.89
2023-01-12T02:45:10.648Z,20.86
2023-01-12T02:46:14.975Z,20.87
2023-01-12T02:47:19.353Z,20.88
2023-01-12T02:48:23.624Z,20.86
2023-01-12T02:49:27.908Z,20.87
2023-01-12T02:50:32.145Z,20.85
2023-01-12T02:51:38.725Z,20.89
2023-01-12T02:52:43.008Z,20.88
2023-01-12T02:53:47.292Z,20.85
2023-01-12T02:54:51.545Z,20.84
2023-01-12T02:55:55.842Z,20.83
2023-01-12T02:57:00.127Z,20.81
2023-01-12T02:58:04.381Z,20.83
2023-01-12T02:59:08.639Z,20.87
2023-01-12T03:00:12.891Z,20.83
2023-01-12T03:01:17.233Z,20.82
2023-01-12T03:02:21.917Z,20.85
2023-01-12T03:03:26.218Z,20.86
2023-01-12T03:04:30.467Z,20.86
2023-01-12T03:05:34.790Z,20.84
2023-01-12T03:06:39.120Z,20.82
2023-01-12T03:07:43.434Z,20.8
2023-01-12T03:08:47.926Z,20.79
2023-01-12T03:09:52.204Z,20.81
2023-01-12T03:10:56.462Z,20.81
2023-01-12T03:12:00.725Z,20.79
2023-01-12T03:13:05.000Z,20.78
2023-01-12T03:14:09.270Z,20.78
2023-01-12T03:15:13.588Z,20.78
2023-01-12T03:16:17.902Z,20.78
2023-01-12T03:17:22.374Z,20.78
2023-01-12T03:18:26.624Z,20.79
2023-01-12T03:19:30.884Z,20.8
2023-01-12T03:20:35.187Z,20.79
2023-01-12T03:21:39.442Z,20.78
2023-01-12T03:22:46.169Z,20.76
2023-01-12T03:23:50.431Z,20.74
2023-01-12T03:24:54.692Z,20.75
2023-01-12T03:25:59.008Z,20.75
2023-01-12T03:27:03.288Z,20.79
2023-01-12T03:28:07.544Z,20.76
2023-01-12T03:29:11.818Z,20.78
2023-01-12T03:30:16.051Z,20.82
2023-01-12T03:31:20.374Z,20.81
2023-01-12T03:32:24.762Z,20.79
2023-01-12T03:33:29.097Z,20.77
2023-01-12T03:34:33.351Z,20.79
2023-01-12T03:35:37.587Z,20.81
2023-01-12T03:36:41.868Z,20.81
2023-01-12T03:37:46.157Z,20.81
2023-01-12T03:38:50.467Z,20.8
2023-01-12T03:39:54.700Z,20.79
2023-01-12T03:40:58.973Z,20.83
2023-01-12T03:42:03.240Z,20.8
2023-01-12T03:43:07.468Z,20.79
2023-01-12T03:44:11.802Z,20.78
2023-01-12T03:45:16.065Z,20.76
2023-01-12T03:46:20.384Z,20.8
2023-01-12T03:47:24.773Z,20.77
2023-01-12T03:48:29.053Z,20.78
2023-01-12T03:49:33.339Z,20.81
2023-01-12T03:50:37.652Z,20.82
2023-01-12T03:51:41.902Z,20.8
2023-01-12T03:52:46.229Z,20.79
2023-01-12T03:53:50.487Z,20.81
2023-01-12T03:54:55.763Z,20.79
2023-01-12T03:56:00.089Z,20.81
2023-01-12T03:57:04.344Z,20.8
2023-01-12T03:58:08.626Z,20.84
2023-01-12T03:59:12.867Z,20.84
2023-01-12T04:00:17.127Z,20.86
2023-01-12T04:01:21.485Z,20.84
2023-01-12T04:02:26.214Z,20.84
2023-01-12T04:03:30.531Z,20.87
2023-01-12T04:04:35.034Z,20.87
2023-01-12T04:05:39.296Z,20.88
2023-01-12T04:06:43.544Z,20.86
2023-01-12T04:07:47.806Z,20.84
2023-01-12T04:08:52.063Z,20.85
2023-01-12T04:09:56.364Z,20.88
2023-01-12T04:11:00.621Z,20.84
2023-01-12T04:12:04.900Z,20.85
2023-01-12T04:13:09.193Z,20.87
2023-01-12T04:14:13.437Z,20.84
2023-01-12T04:15:17.715Z,20.81
2023-01-12T04:16:21.977Z,20.79
2023-01-12T04:17:26.385Z,20.76
2023-01-12T04:18:30.633Z,20.76
2023-01-12T04:19:34.902Z,20.76
2023-01-12T04:20:41.436Z,20.74
2023-01-12T04:21:45.708Z,20.74
2023-01-12T04:22:49.951Z,20.77
2023-01-12T04:23:54.199Z,20.8
2023-01-12T04:24:58.465Z,20.81
2023-01-12T04:26:02.777Z,20.79
2023-01-12T04:27:07.018Z,20.76
2023-01-12T04:28:11.277Z,20.77
2023-01-12T04:29:15.563Z,20.76
2023-01-12T04:30:19.905Z,20.77
2023-01-12T04:31:24.188Z,20.78
2023-01-12T04:32:28.654Z,20.77
2023-01-12T04:33:32.933Z,20.79
2023-01-12T04:34:37.185Z,20.79
2023-01-12T04:35:41.446Z,20.83
2023-01-12T04:36:45.704Z,20.82
2023-01-12T04:37:49.961Z,20.85
2023-01-12T04:38:54.205Z,20.83
2023-01-12T04:39:58.521Z,20.84
2023-01-12T04:41:02.771Z,20.86
2023-01-12T04:42:07.041Z,20.88
2023-01-12T04:43:11.307Z,20.85
2023-01-12T04:44:15.536Z,20.83
2023-01-12T04:45:19.816Z,20.83
2023-01-12T04:46:24.050Z,20.86
2023-01-12T04:47:28.325Z,20.88
2023-01-12T04:48:32.590Z,20.84
2023-01-12T04:49:36.823Z,20.85
2023-01-12T04:50:41.106Z,20.81
2023-01-12T04:51:45.378Z,20.81
2023-01-12T04:52:49.731Z,20.8
2023-01-12T04:53:54.023Z,20.82
2023-01-12T04:54:58.306Z,20.87
2023-01-12T04:56:02.576Z,20.94
2023-01-12T04:57:06.863Z,20.92
2023-01-12T04:58:12.146Z,20.89
2023-01-12T04:59:16.409Z,20.87
2023-01-12T05:00:20.668Z,20.84
2023-01-12T05:01:24.976Z,20.78
2023-01-12T05:02:29.587Z,20.76
2023-01-12T05:03:33.891Z,20.74
2023-01-12T05:04:38.156Z,20.74
2023-01-12T05:05:42.420Z,20.69
2023-01-12T05:06:46.666Z,20.73
2023-01-12T05:07:50.890Z,20.78
2023-01-12T05:08:55.130Z,20.83
2023-01-12T05:09:59.401Z,20.9
2023-01-12T05:11:03.695Z,20.97
2023-01-12T05:12:07.948Z,21
2023-01-12T05:13:12.205Z,21.05
2023-01-12T05:14:16.584Z,21.13
2023-01-12T05:15:20.871Z,21.2
2023-01-12T05:16:25.199Z,21.26
2023-01-12T05:17:29.566Z,21.34
2023-01-12T05:18:33.851Z,21.37
2023-01-12T05:19:38.091Z,21.43
2023-01-12T05:20:42.357Z,21.47
2023-01-12T05:21:46.667Z,21.51
2023-01-12T05:22:50.931Z,21.53
2023-01-12T05:23:55.193Z,21.55
2023-01-12T05:24:59.496Z,21.56
2023-01-12T05:26:03.812Z,21.58
2023-01-12T05:27:08.073Z,21.58
2023-01-12T05:28:12.435Z,21.58
2023-01-12T05:29:16.680Z,21.59
2023-01-12T05:30:20.930Z,21.58
2023-01-12T05:31:26.244Z,21.57
2023-01-12T05:32:30.507Z,21.55
2023-01-12T05:33:34.760Z,21.52
2023-01-12T05:34:39.026Z,21.53
2023-01-12T05:35:43.298Z,21.49
2023-01-12T05:36:47.641Z,21.49
2023-01-12T05:37:51.970Z,21.48
2023-01-12T05:38:56.208Z,21.46
2023-01-12T05:40:00.458Z,21.46
2023-01-12T05:41:04.764Z,21.45
2023-01-12T05:42:09.017Z,21.44
2023-01-12T05:43:13.307Z,21.42
2023-01-12T05:44:17.545Z,21.4
2023-01-12T05:45:21.797Z,21.4
2023-01-12T05:46:26.132Z,21.38
2023-01-12T05:47:30.585Z,21.37
2023-01-12T05:48:34.926Z,21.39
2023-01-12T05:49:39.190Z,21.39
2023-01-12T05:50:43.448Z,21.4
2023-01-12T05:51:47.723Z,21.38
2023-01-12T05:52:52.000Z,21.4
2023-01-12T05:53:56.315Z,21.4
2023-01-12T05:55:00.548Z,21.39
2023-01-12T05:56:04.898Z,21.41
2023-01-12T05:57:09.156Z,21.4
2023-01-12T05:58:13.436Z,21.39
2023-01-12T05:59:17.749Z,21.41
2023-01-12T06:00:22.020Z,21.42
2023-01-12T06:01:26.385Z,21.4
2023-01-12T06:02:30.986Z,21.38
2023-01-12T06:03:35.398Z,21.36
2023-01-12T06:04:39.911Z,21.34
2023-01-12T06:05:44.326Z,21.32
2023-01-12T06:06:48.556Z,21.32
2023-01-12T06:07:52.845Z,21.29
2023-01-12T06:08:57.103Z,21.27
2023-01-12T06:10:01.436Z,21.25
2023-01-12T06:11:06.193Z,21.25
2023-01-12T06:12:10.471Z,21.24
2023-01-12T06:13:14.737Z,21.24
2023-01-12T06:14:19.040Z,21.23
2023-01-12T06:15:23.368Z,21.22
2023-01-12T06:16:27.650Z,21.2
2023-01-12T06:17:31.926Z,21.19
2023-01-12T06:18:36.242Z,21.18
2023-01-12T06:19:40.519Z,21.18
2023-01-12T06:20:44.821Z,21.14
2023-01-12T06:21:49.098Z,21.14
2023-01-12T06:22:53.437Z,21.13
2023-01-12T06:23:57.701Z,21.11
2023-01-12T06:25:01.968Z,21.1
2023-01-12T06:26:06.313Z,21.08
2023-01-12T06:27:13.541Z,21.08
2023-01-12T06:28:17.793Z,21.06
2023-01-12T06:29:22.336Z,21.04
2023-01-12T06:30:26.581Z,21.03
2023-01-12T06:31:30.948Z,21.03
2023-01-12T06:32:35.558Z,21.01
2023-01-12T06:33:39.982Z,21
2023-01-12T06:34:44.247Z,21.02
2023-01-12T06:35:48.496Z,21.01
2023-01-12T06:36:52.767Z,21
2023-01-12T06:37:57.051Z,21
2023-01-12T06:39:01.341Z,21.01
2023-01-12T06:40:08.569Z,21
2023-01-12T06:41:12.816Z,21
2023-01-12T06:42:17.079Z,20.99
2023-01-12T06:43:21.334Z,20.98
2023-01-12T06:44:25.601Z,20.99
2023-01-12T06:45:29.854Z,21
2023-01-12T06:46:34.172Z,21
2023-01-12T06:47:38.599Z,21.02
2023-01-12T06:48:42.866Z,21.03
2023-01-12T06:49:47.128Z,21.05
2023-01-12T06:50:52.404Z,21.04
2023-01-12T06:51:56.646Z,21.05
2023-01-12T06:53:00.981Z,21.07
2023-01-12T06:54:05.518Z,21.08
2023-01-12T06:55:09.820Z,21.1
2023-01-12T06:56:14.107Z,21.11
2023-01-12T06:57:18.355Z,21.11
2023-01-12T06:58:22.608Z,21.1
2023-01-12T06:59:26.862Z,21.11
2023-01-12T07:00:31.224Z,21.1
2023-01-12T07:01:35.568Z,21.11
2023-01-12T07:02:40.091Z,21.11
2023-01-12T07:03:45.380Z,21.09
2023-01-12T07:04:49.659Z,21.08
2023-01-12T07:05:53.946Z,21.09
2023-01-12T07:06:58.189Z,21.1
2023-01-12T07:08:02.472Z,21.08
2023-01-12T07:09:06.809Z,21.06
2023-01-12T07:10:11.143Z,21.08
2023-01-12T07:11:15.415Z,21.08
2023-01-12T07:12:19.696Z,21.09
2023-01-12T07:13:24.005Z,21.09
2023-01-12T07:14:28.254Z,21.07
2023-01-12T07:15:32.491Z,21.07
2023-01-12T07:16:36.731Z,21.04
2023-01-12T07:17:41.022Z,20.99
2023-01-12T07:18:45.290Z,21.01
2023-01-12T07:19:49.544Z,20.98
2023-01-12T07:20:53.787Z,21
2023-01-12T07:21:58.056Z,21
2023-01-12T07:23:02.323Z,21.01
2023-01-12T07:24:06.610Z,20.99
2023-01-12T07:25:10.914Z,20.94
2023-01-12T07:26:15.176Z,20.92
2023-01-12T07:27:19.440Z,20.9
2023-01-12T07:28:23.719Z,20.93
2023-01-12T07:29:28.016Z,20.91
2023-01-12T07:30:32.347Z,20.91
2023-01-12T07:31:36.619Z,20.89
2023-01-12T07:32:40.906Z,20.88
2023-01-12T07:33:45.161Z,20.94
2023-01-12T07:34:50.456Z,20.96
2023-01-12T07:35:54.763Z,20.98
2023-01-12T07:36:59.012Z,20.95
2023-01-12T07:38:03.280Z,20.95
2023-01-12T07:39:07.525Z,20.95
2023-01-12T07:40:11.809Z,20.97
2023-01-12T07:41:16.288Z,20.99
2023-01-12T07:42:20.547Z,21
2023-01-12T07:43:24.814Z,21
2023-01-12T07:44:29.112Z,20.99
2023-01-12T07:45:35.901Z,20.99
2023-01-12T07:46:40.165Z,21
2023-01-12T07:47:44.553Z,20.99
2023-01-12T07:48:48.851Z,20.98
2023-01-12T07:49:53.103Z,20.97
2023-01-12T07:50:57.427Z,20.99
2023-01-12T07:52:01.722Z,20.99
2023-01-12T07:53:05.991Z,20.96
2023-01-12T07:54:10.255Z,20.96
2023-01-12T07:55:14.529Z,20.95
2023-01-12T07:56:18.796Z,20.97
2023-01-12T07:57:23.116Z,20.99
2023-01-12T07:58:27.377Z,20.98
2023-01-12T07:59:31.638Z,20.95
2023-01-12T08:00:35.880Z,20.95
2023-01-12T08:01:40.301Z,20.95
2023-01-12T08:02:44.999Z,20.97
2023-01-12T08:03:49.988Z,20.94
2023-01-12T08:04:54.250Z,20.95
2023-01-12T08:06:00.759Z,21
2023-01-12T08:07:05.019Z,20.99
2023-01-12T08:08:09.330Z,20.97
2023-01-12T08:09:13.628Z,20.94
2023-01-12T08:10:17.896Z,20.98
2023-01-12T08:11:22.150Z,21
2023-01-12T08:12:26.430Z,20.98
2023-01-12T08:13:30.675Z,21
2023-01-12T08:14:34.911Z,20.94
2023-01-12T08:15:39.169Z,20.91
2023-01-12T08:16:43.467Z,20.9
2023-01-12T08:17:47.771Z,20.86
2023-01-12T08:18:52.033Z,20.86
2023-01-12T08:19:56.290Z,20.87
2023-01-12T08:21:00.564Z,20.85
2023-01-12T08:22:04.966Z,20.86
2023-01-12T08:23:09.209Z,20.88
2023-01-12T08:24:13.467Z,20.9
2023-01-12T08:25:17.781Z,20.87
2023-01-12T08:26:22.040Z,20.88
2023-01-12T08:27:26.315Z,20.87
2023-01-12T08:28:30.576Z,20.86
2023-01-12T08:29:34.821Z,20.87
2023-01-12T08:30:39.055Z,20.85
2023-01-12T08:31:43.315Z,20.89
2023-01-12T08:32:47.604Z,20.92
2023-01-12T08:33:51.889Z,20.95
2023-01-12T08:34:56.132Z,20.92
2023-01-12T08:36:04.350Z,20.91
2023-01-12T08:37:08.593Z,20.94
2023-01-12T08:38:12.904Z,20.95
2023-01-12T08:39:17.216Z,20.99
2023-01-12T08:40:21.733Z,21
2023-01-12T08:41:25.984Z,21
2023-01-12T08:42:31.852Z,21
2023-01-12T08:43:36.310Z,21
2023-01-12T08:44:41.862Z,21.03
2023-01-12T08:45:46.150Z,21.04
2023-01-12T08:46:50.521Z,21.02
2023-01-12T08:47:54.932Z,21.04
2023-01-12T08:48:59.197Z,21.04
2023-01-12T08:50:03.483Z,21.03
2023-01-12T08:51:07.792Z,21.01
2023-01-12T08:52:12.115Z,21.03
2023-01-12T08:53:16.717Z,21.04
2023-01-12T08:54:21.009Z,21.04
2023-01-12T08:55:25.311Z,21.01
2023-01-12T08:56:29.661Z,21.01
2023-01-12T08:57:33.987Z,20.99
2023-01-12T08:58:38.255Z,21
2023-01-12T08:59:42.545Z,21.01
2023-01-12T09:00:47.106Z,21.02
2023-01-12T09:01:51.713Z,21.02
2023-01-12T09:02:56.261Z,21
2023-01-12T09:04:00.542Z,21.01
2023-01-12T09:05:04.815Z,20.95
2023-01-12T09:06:09.100Z,20.99
2023-01-12T09:07:13.414Z,21
2023-01-12T09:08:17.687Z,21
2023-01-12T09:09:21.970Z,20.98
2023-01-12T09:10:26.230Z,20.97
2023-01-12T09:11:30.553Z,20.95
2023-01-12T09:12:34.887Z,20.92
2023-01-12T09:13:39.168Z,20.95
2023-01-12T09:14:43.466Z,20.95
2023-01-12T09:15:56.651Z,20.97
2023-01-12T09:17:16.255Z,20.97
2023-01-12T09:18:20.658Z,20.94
2023-01-12T09:19:24.982Z,20.93
2023-01-12T09:20:29.244Z,20.9
2023-01-12T09:21:33.566Z,20.86
2023-01-12T09:22:37.847Z,20.88
2023-01-12T09:23:42.106Z,20.85
2023-01-12T09:24:46.362Z,20.84
2023-01-12T09:25:50.660Z,20.85
2023-01-12T09:26:54.944Z,20.86
2023-01-12T09:27:59.272Z,20.86
2023-01-12T09:29:03.547Z,20.83
2023-01-12T09:30:07.841Z,20.78
2023-01-12T09:31:12.243Z,20.8
2023-01-12T09:32:18.463Z,20.77
2023-01-12T09:33:38.690Z,20.82
2023-01-12T09:34:45.996Z,20.78
2023-01-12T09:35:50.326Z,20.78
2023-01-12T09:36:54.599Z,20.75
2023-01-12T09:37:58.906Z,20.77
2023-01-12T09:39:03.379Z,20.78
2023-01-12T09:40:10.090Z,20.82
2023-01-12T09:41:14.363Z,20.85
2023-01-12T09:42:18.610Z,20.86
2023-01-12T09:43:22.924Z,20.88
2023-01-12T09:44:27.181Z,20.89
2023-01-12T09:45:31.498Z,20.92
2023-01-12T09:46:35.922Z,20.91
2023-01-12T09:47:40.215Z,20.93
2023-01-12T09:48:44.491Z,20.95
2023-01-12T09:49:49.218Z,20.96
2023-01-12T09:51:10.651Z,20.98
2023-01-12T09:52:14.905Z,20.99
2023-01-12T09:53:19.173Z,20.98
2023-01-12T09:54:23.450Z,20.98
2023-01-12T09:55:27.707Z,20.99
2023-01-12T09:56:32.005Z,21
2023-01-12T09:57:36.321Z,20.99
2023-01-12T09:58:40.582Z,20.99
2023-01-12T09:59:44.851Z,21
2023-01-12T10:00:49.137Z,20.99
2023-01-12T10:01:53.759Z,21
2023-01-12T10:02:58.483Z,21.01
2023-01-12T10:04:03.172Z,21.01
2023-01-12T10:05:07.404Z,21.01
2023-01-12T10:06:11.708Z,20.97
2023-01-12T10:07:15.979Z,20.96
2023-01-12T10:08:20.270Z,20.98
2023-01-12T10:09:24.502Z,21
2023-01-12T10:10:28.778Z,20.99
2023-01-12T10:11:33.071Z,20.99
2023-01-12T10:12:37.300Z,20.97
2023-01-12T10:13:41.566Z,20.98
2023-01-12T10:14:45.835Z,20.98
2023-01-12T10:15:50.135Z,20.96
2023-01-12T10:16:54.367Z,20.91
2023-01-12T10:17:58.676Z,20.93
2023-01-12T10:19:03.043Z,20.99
2023-01-12T10:20:07.322Z,21.04
2023-01-12T10:21:11.619Z,21.1
2023-01-12T10:22:15.889Z,21.11
2023-01-12T10:23:20.229Z,21.13
2023-01-12T10:24:24.507Z,21.12
2023-01-12T10:25:28.902Z,21.12
2023-01-12T10:26:33.258Z,21.09
2023-01-12T10:27:38.857Z,21.07
2023-01-12T10:28:43.107Z,21.08
2023-01-12T10:29:47.372Z,21.14
2023-01-12T10:30:51.623Z,21.26
2023-01-12T10:31:59.331Z,21.67
2023-01-12T10:33:03.816Z,22.08
2023-01-12T10:34:08.084Z,21.88
2023-01-12T10:35:12.368Z,21.68
2023-01-12T10:36:16.660Z,21.45
2023-01-12T10:37:20.941Z,21.2
2023-01-12T10:38:25.196Z,21.01
2023-01-12T10:39:29.524Z,20.9
2023-01-12T10:40:33.879Z,20.82
2023-01-12T10:41:38.161Z,20.75
2023-01-12T10:42:42.449Z,20.68
2023-01-12T10:43:46.758Z,20.6
2023-01-12T10:44:51.037Z,20.55
2023-01-12T10:45:55.389Z,20.5
2023-01-12T10:46:59.767Z,20.52
2023-01-12T10:48:04.011Z,20.36
2023-01-12T10:49:08.306Z,20.3
2023-01-12T10:50:12.613Z,20.28
2023-01-12T10:51:16.930Z,20.27
2023-01-12T10:52:21.216Z,20.29
2023-01-12T10:53:25.526Z,20.27
2023-01-12T10:54:29.814Z,20.2
2023-01-12T10:55:34.101Z,20.25
2023-01-12T10:56:38.401Z,20.24
2023-01-12T10:57:44.981Z,20.31
2023-01-12T10:58:49.311Z,20.2
2023-01-12T10:59:53.555Z,20.25
2023-01-12T11:00:57.979Z,20.21
2023-01-12T11:02:02.796Z,20.18
2023-01-12T11:03:07.690Z,20.17
2023-01-12T11:04:11.996Z,20.15
2023-01-12T11:05:16.376Z,20.09
2023-01-12T11:06:20.623Z,20
2023-01-12T11:07:24.978Z,19.98
2023-01-12T11:08:29.287Z,19.92
2023-01-12T11:09:33.595Z,19.89
2023-01-12T11:10:37.895Z,19.88
2023-01-12T11:11:42.212Z,19.88
2023-01-12T11:12:46.494Z,19.88
2023-01-12T11:13:50.783Z,19.82
2023-01-12T11:14:55.061Z,19.8
2023-01-12T11:15:59.959Z,19.84
2023-01-12T11:17:04.250Z,19.83
2023-01-12T11:18:08.519Z,19.81
2023-01-12T11:19:12.796Z,19.79
2023-01-12T11:20:18.061Z,19.78
2023-01-12T11:21:22.343Z,19.74
2023-01-12T11:22:26.662Z,19.74
2023-01-12T11:23:31.050Z,19.75
2023-01-12T11:24:35.290Z,19.73
2023-01-12T11:25:39.570Z,19.87
2023-01-12T11:26:43.836Z,20.08
2023-01-12T11:27:48.109Z,20.22
2023-01-12T11:28:52.460Z,20.34
2023-01-12T11:29:56.710Z,20.42
2023-01-12T11:31:01.041Z,20.49
2023-01-12T11:32:05.490Z,20.49
2023-01-12T11:33:09.786Z,20.53
2023-01-12T11:34:14.048Z,20.53
2023-01-12T11:35:18.371Z,20.53
2023-01-12T11:36:22.666Z,20.52
2023-01-12T11:37:26.984Z,20.51
2023-01-12T11:38:31.248Z,20.49
2023-01-12T11:39:35.563Z,20.46
2023-01-12T11:40:39.857Z,20.45
2023-01-12T11:41:44.156Z,20.45
2023-01-12T11:42:48.410Z,20.47
2023-01-12T11:43:52.704Z,20.52
2023-01-12T11:44:57.105Z,20.57
2023-01-12T11:46:01.435Z,20.6
2023-01-12T11:47:05.940Z,20.66
2023-01-12T11:48:10.235Z,20.73
2023-01-12T11:49:14.539Z,20.79
2023-01-12T11:50:18.884Z,20.86
2023-01-12T11:51:23.148Z,20.93
2023-01-12T11:52:27.443Z,21
2023-01-12T11:53:31.738Z,21.05
2023-01-12T11:54:36.015Z,21.09
2023-01-12T11:55:40.345Z,21.13
2023-01-12T11:56:44.614Z,21.16
2023-01-12T11:57:48.890Z,21.2
2023-01-12T11:58:53.252Z,21.23
2023-01-12T11:59:57.757Z,21.26
2023-01-12T12:01:02.125Z,21.28
2023-01-12T12:02:07.024Z,21.28
2023-01-12T12:03:11.511Z,21.31
2023-01-12T12:04:15.895Z,21.32
2023-01-12T12:05:20.173Z,21.35
2023-01-12T12:06:24.486Z,21.35
2023-01-12T12:07:28.780Z,21.38
2023-01-12T12:08:33.129Z,21.42
2023-01-12T12:09:37.396Z,21.43
2023-01-12T12:10:41.658Z,21.45
2023-01-12T12:11:46.059Z,21.48
2023-01-12T12:12:50.355Z,21.51
2023-01-12T12:13:54.655Z,21.52
2023-01-12T12:14:58.926Z,21.53
2023-01-12T12:16:03.272Z,21.53
2023-01-12T12:17:07.816Z,21.54
2023-01-12T12:18:12.171Z,21.53
2023-01-12T12:19:16.440Z,21.52
2023-01-12T12:20:20.762Z,21.52
2023-01-12T12:21:25.028Z,21.49
2023-01-12T12:22:29.296Z,21.49
2023-01-12T12:23:33.564Z,21.48
2023-01-12T12:24:37.862Z,21.48
2023-01-12T12:25:42.137Z,21.45
2023-01-12T12:26:46.384Z,21.46
2023-01-12T12:27:50.681Z,21.43
2023-01-12T12:28:55.001Z,21.4
2023-01-12T12:29:59.337Z,21.39
2023-01-12T12:31:03.777Z,21.37
2023-01-12T12:32:08.260Z,21.33
2023-01-12T12:33:12.537Z,21.33
2023-01-12T12:34:16.799Z,21.32
2023-01-12T12:35:21.640Z,21.28
2023-01-12T12:36:25.909Z,21.25
2023-01-12T12:37:30.164Z,21.25
2023-01-12T12:38:34.432Z,21.22
2023-01-12T12:39:38.758Z,21.22
2023-01-12T12:40:43.024Z,21.19
2023-01-12T12:41:47.431Z,21.18
2023-01-12T12:42:51.755Z,21.15
2023-01-12T12:43:56.172Z,21.14
2023-01-12T12:45:00.473Z,21.14
2023-01-12T12:46:04.864Z,21.12
2023-01-12T12:47:09.574Z,21.11
2023-01-12T12:48:13.835Z,21.1
2023-01-12T12:49:18.144Z,21.09
2023-01-12T12:50:22.458Z,21.1
2023-01-12T12:51:26.747Z,21.11
2023-01-12T12:52:31.015Z,21.1
2023-01-12T12:53:35.304Z,21.1
2023-01-12T12:54:39.556Z,21.1
2023-01-12T12:55:43.805Z,21.11
2023-01-12T12:56:48.077Z,21.14
2023-01-12T12:57:52.396Z,21.15
2023-01-12T12:58:56.685Z,21.17
2023-01-12T13:00:01.092Z,21.19
2023-01-12T13:01:05.633Z,21.19
2023-01-12T13:02:10.093Z,21.2
2023-01-12T13:03:14.555Z,21.22
2023-01-12T13:04:19.265Z,21.23
2023-01-12T13:05:23.553Z,21.25
2023-01-12T13:06:27.894Z,21.22
2023-01-12T13:07:32.216Z,21.28
2023-01-12T13:08:36.505Z,21.27
2023-01-12T13:09:40.791Z,21.29
2023-01-12T13:10:45.150Z,21.32
2023-01-12T13:11:49.515Z,21.35
2023-01-12T13:12:53.807Z,21.32
2023-01-12T13:13:58.368Z,21.34
2023-01-12T13:15:02.662Z,21.33
2023-01-12T13:16:07.019Z,21.32
2023-01-12T13:17:11.491Z,21.34
2023-01-12T13:18:18.721Z,21.31
2023-01-12T13:19:23.027Z,21.33
2023-01-12T13:20:27.365Z,21.32
2023-01-12T13:21:31.643Z,21.32
2023-01-12T13:22:36.115Z,21.39
2023-01-12T13:23:40.378Z,21.34
2023-01-12T13:24:44.672Z,21.32
2023-01-12T13:25:48.940Z,21.26
2023-01-12T13:26:53.202Z,21.23
2023-01-12T13:27:57.454Z,21.21
2023-01-12T13:29:01.701Z,21.2
2023-01-12T13:30:05.984Z,21.19
2023-01-12T13:31:10.357Z,21.2
2023-01-12T13:32:14.764Z,21.16
2023-01-12T13:33:19.029Z,21.16
2023-01-12T13:34:23.557Z,21.17
2023-01-12T13:35:27.806Z,21.17
2023-01-12T13:36:32.065Z,21.15
2023-01-12T13:37:36.353Z,21.15
2023-01-12T13:38:40.593Z,21.14
2023-01-12T13:39:44.884Z,21.14
2023-01-12T13:40:55.812Z,21.13
2023-01-12T13:42:00.587Z,21.08
2023-01-12T13:43:04.885Z,21.1
2023-01-12T13:44:09.198Z,21.09
2023-01-12T13:45:13.470Z,21.08
2023-01-12T13:46:17.805Z,21.07
2023-01-12T13:47:22.217Z,21.07
2023-01-12T13:48:26.472Z,21.08
2023-01-12T13:49:30.741Z,21.07
2023-01-12T13:50:35.033Z,21.08
2023-01-12T13:51:39.317Z,21.11
2023-01-12T13:52:43.961Z,21.14
2023-01-12T13:53:48.208Z,21.16
2023-01-12T13:54:52.481Z,21.19
2023-01-12T13:55:56.771Z,21.21